createdAt,value
2023-05-20T00:02:16.380Z,13.16
2023-05-20T00:07:19.261Z,13.13
2023-05-20T00:12:22.044Z,13.09
2023-05-20T00:17:26.678Z,13.09
2023-05-20T00:22:29.656Z,13.08
2023-05-20T00:27:32.516Z,13.06
2023-05-20T00:32:35.436Z,13.02
2023-05-20T00:37:38.718Z,12.99
2023-05-20T00:42:41.573Z,12.90
2023-05-20T00:47:44.377Z,12.82
2023-05-20T00:52:48.372Z,12.76
2023-05-20T00:57:52.224Z,12.71
2023-05-20T01:02:55.566Z,12.67
2023-05-20T01:07:58.838Z,12.61
2023-05-20T01:13:03.662Z,12.56
2023-05-20T01:18:07.657Z,12.52
2023-05-20T01:23:10.677Z,12.48
2023-05-20T01:28:17.956Z,12.45
2023-05-20T01:33:21.914Z,12.44
2023-05-20T01:38:24.834Z,12.43
2023-05-20T01:43:27.642Z,12.43
2023-05-20T01:48:30.548Z,12.42
2023-05-20T01:53:33.666Z,12.40
2023-05-20T01:58:36.620Z,12.39
2023-05-20T02:03:39.510Z,12.39
2023-05-20T02:08:42.289Z,12.41
2023-05-20T02:13:45.118Z,12.41
2023-05-20T02:18:47.990Z,12.38
2023-05-20T02:23:51.047Z,12.35
2023-05-20T02:28:53.894Z,12.36
2023-05-20T02:33:56.857Z,12.35
2023-05-20T02:39:01.334Z,12.34
2023-05-20T02:44:04.390Z,12.37
2023-05-20T02:49:07.270Z,12.40
2023-05-20T02:54:10.518Z,12.42
2023-05-20T02:59:13.420Z,12.40
2023-05-20T03:04:19.283Z,12.38
2023-05-20T03:09:22.265Z,12.39
2023-05-20T03:14:25.122Z,12.43
2023-05-20T03:19:28.136Z,12.48
2023-05-20T03:24:31.051Z,12.54
2023-05-20T03:29:33.958Z,12.59
2023-05-20T03:34:36.802Z,12.64
2023-05-20T03:39:39.739Z,12.71
2023-05-20T03:44:42.585Z,12.78
2023-05-20T03:49:46.156Z,12.88
2023-05-20T03:54:48.949Z,12.97
2023-05-20T03:59:51.888Z,13.06
2023-05-20T04:04:57.841Z,13.17
2023-05-20T04:10:00.916Z,13.32
2023-05-20T04:15:03.993Z,13.44
2023-05-20T04:20:07.738Z,13.56
2023-05-20T04:25:10.643Z,13.69
2023-05-20T04:30:14.004Z,13.81
2023-05-20T04:35:17.057Z,13.97
2023-05-20T04:40:21.047Z,14.11
2023-05-20T04:45:24.038Z,14.28
2023-05-20T04:50:27.385Z,14.42
2023-05-20T04:55:30.942Z,14.57
2023-05-20T05:00:34.494Z,14.70
2023-05-20T05:05:38.936Z,14.83
2023-05-20T05:10:41.810Z,14.96
2023-05-20T05:15:44.605Z,15.08
2023-05-20T05:20:47.411Z,15.20
2023-05-20T05:25:53.915Z,15.31
2023-05-20T05:30:56.922Z,15.44
2023-05-20T05:36:01.272Z,15.56
2023-05-20T05:41:04.188Z,15.65
2023-05-20T05:46:07.164Z,15.79
2023-05-20T05:51:10.407Z,15.91
2023-05-20T05:56:13.140Z,16.02
2023-05-20T06:01:16.086Z,16.21
2023-05-20T06:06:18.920Z,16.38
2023-05-20T06:11:23.020Z,16.54
2023-05-20T06:16:25.920Z,16.77
2023-05-20T06:21:28.919Z,16.90
2023-05-20T06:26:31.712Z,17.03
2023-05-20T06:31:34.623Z,17.16
2023-05-20T06:36:37.519Z,17.26
2023-05-20T06:41:40.342Z,17.38
2023-05-20T06:46:43.263Z,17.52
2023-05-20T06:51:46.161Z,17.63
2023-05-20T06:56:49.065Z,17.66
2023-05-20T07:01:52.195Z,17.63
2023-05-20T07:06:55.389Z,17.65
2023-05-20T07:11:58.149Z,17.66
2023-05-20T07:17:02.345Z,17.76
2023-05-20T07:22:05.293Z,17.84
2023-05-20T07:27:08.568Z,17.92
2023-05-20T07:32:11.516Z,18.00
2023-05-20T07:37:14.888Z,18.10
2023-05-20T07:42:17.946Z,18.21
2023-05-20T07:47:21.176Z,18.31
2023-05-20T07:52:25.450Z,18.45
2023-05-20T07:57:28.329Z,18.62
2023-05-20T08:02:31.356Z,18.79
2023-05-20T08:07:34.721Z,19.01
2023-05-20T08:12:37.746Z,19.19
2023-05-20T08:17:40.789Z,19.42
2023-05-20T08:22:43.721Z,19.65
2023-05-20T08:27:46.546Z,19.85
2023-05-20T08:32:49.490Z,20.06
2023-05-20T08:37:54.135Z,20.28
2023-05-20T08:42:59.164Z,20.51
2023-05-20T08:48:02.152Z,20.74
2023-05-20T08:53:05.121Z,20.99
2023-05-20T08:58:08.057Z,21.20
2023-05-20T09:03:11.515Z,21.49
2023-05-20T09:08:14.432Z,21.83
2023-05-20T09:13:17.226Z,22.23
2023-05-20T09:18:20.127Z,22.51
2023-05-20T09:23:22.950Z,22.73
2023-05-20T09:28:25.824Z,23.01
2023-05-20T09:33:30.162Z,23.31
2023-05-20T09:38:38.080Z,23.53
2023-05-20T09:43:41.660Z,23.93
2023-05-20T09:48:44.429Z,24.06
2023-05-20T09:53:47.386Z,24.20
2023-05-20T09:58:51.149Z,24.15
2023-05-20T10:03:53.980Z,24.24
2023-05-20T10:09:32.863Z,24.18
2023-05-20T10:14:53.023Z,24.49
2023-05-20T10:19:59.734Z,24.74
2023-05-20T10:25:07.377Z,25.20
2023-05-20T10:30:17.473Z,25.80
2023-05-20T10:35:26.713Z,26.06
2023-05-20T10:40:29.624Z,27.03
2023-05-20T10:45:32.991Z,26.81
2023-05-20T10:50:37.189Z,26.89
2023-05-20T10:55:41.656Z,28.39
2023-05-20T11:00:44.641Z,29.11
2023-05-20T11:05:48.435Z,30.65
2023-05-20T11:11:00.922Z,32.11
2023-05-20T11:16:04.683Z,31.97
2023-05-20T11:21:08.082Z,32.13
2023-05-20T11:26:11.132Z,32.00
2023-05-20T11:31:13.922Z,32.48
2023-05-20T11:36:27.391Z,32.80
2023-05-20T11:41:31.076Z,34.00
2023-05-20T11:46:33.957Z,35.48
2023-05-20T11:51:37.924Z,36.40
2023-05-20T11:56:45.427Z,37.11
2023-05-20T12:01:48.255Z,37.94
2023-05-20T12:06:51.283Z,38.82
2023-05-20T12:11:56.671Z,39.20
2023-05-20T12:16:59.958Z,38.75
2023-05-20T12:22:02.838Z,38.77
2023-05-20T12:27:06.444Z,39.44
2023-05-20T12:32:09.358Z,40.26
2023-05-20T12:37:12.290Z,40.94
2023-05-20T12:42:15.327Z,40.99
2023-05-20T12:47:18.355Z,41.54
2023-05-20T12:52:22.771Z,41.92
2023-05-20T12:57:25.982Z,41.83
2023-05-20T13:02:29.075Z,41.59
2023-05-20T13:07:32.913Z,39.50
2023-05-20T13:12:35.885Z,37.34
2023-05-20T13:17:39.525Z,36.42
2023-05-20T13:22:42.514Z,37.70
2023-05-20T13:27:45.261Z,38.71
2023-05-20T13:32:48.192Z,39.31
2023-05-20T13:37:51.239Z,39.91
2023-05-20T13:42:54.356Z,40.59
2023-05-20T13:47:57.498Z,41.20
2023-05-20T13:53:00.383Z,41.04
2023-05-20T13:58:03.740Z,40.92
2023-05-20T14:03:09.232Z,41.32
2023-05-20T14:08:12.711Z,41.43
2023-05-20T14:13:15.570Z,41.85
2023-05-20T14:18:19.017Z,42.24
2023-05-20T14:23:21.876Z,42.39
2023-05-20T14:28:24.762Z,41.38
2023-05-20T14:33:27.757Z,39.30
2023-05-20T14:38:30.966Z,37.26
2023-05-20T14:43:34.464Z,35.77
2023-05-20T14:48:37.390Z,34.67
2023-05-20T14:53:40.247Z,33.67
2023-05-20T14:58:43.062Z,32.97
2023-05-20T15:03:45.969Z,32.19
2023-05-20T15:08:48.868Z,31.47
2023-05-20T15:13:51.689Z,30.98
2023-05-20T15:18:54.930Z,30.52
2023-05-20T15:23:57.849Z,30.24
2023-05-20T15:29:00.833Z,29.78
2023-05-20T15:34:03.707Z,29.18
2023-05-20T15:39:06.534Z,28.94
2023-05-20T15:44:09.483Z,28.54
2023-05-20T15:49:12.734Z,27.92
2023-05-20T15:54:15.575Z,27.46
2023-05-20T15:59:18.415Z,27.15
2023-05-20T16:04:21.805Z,26.97
2023-05-20T16:09:24.767Z,26.85
2023-05-20T16:14:27.616Z,26.84
2023-05-20T16:19:30.605Z,26.61
2023-05-20T16:24:33.721Z,26.24
2023-05-20T16:29:37.393Z,25.82
2023-05-20T16:34:40.147Z,25.54
2023-05-20T16:39:42.898Z,25.34
2023-05-20T16:44:46.778Z,25.13
2023-05-20T16:49:49.648Z,24.88
2023-05-20T16:54:52.557Z,24.67
2023-05-20T16:59:55.989Z,24.38
2023-05-20T17:04:58.853Z,24.11
2023-05-20T17:10:01.793Z,23.90
2023-05-20T17:15:06.223Z,23.69
2023-05-20T17:20:09.668Z,23.49
2023-05-20T17:25:12.745Z,23.30
2023-05-20T17:30:15.669Z,23.09
2023-05-20T17:35:20.406Z,22.84
2023-05-20T17:40:23.279Z,22.61
2023-05-20T17:45:26.346Z,22.37
2023-05-20T17:50:29.211Z,22.17
2023-05-20T17:55:32.932Z,21.96
2023-05-20T18:00:42.111Z,21.76
2023-05-20T18:05:45.128Z,21.56
2023-05-20T18:10:47.934Z,21.38
2023-05-20T18:15:51.078Z,21.17
2023-05-20T18:20:53.859Z,20.97
2023-05-20T18:25:56.807Z,20.75
2023-05-20T18:30:59.682Z,20.53
2023-05-20T18:36:02.699Z,20.30
2023-05-20T18:41:05.523Z,20.06
2023-05-20T18:46:08.432Z,19.78
2023-05-20T18:51:11.330Z,19.52
2023-05-20T18:56:14.304Z,19.28
2023-05-20T19:01:17.189Z,19.08
2023-05-20T19:06:21.998Z,18.88
2023-05-20T19:11:24.988Z,18.67
2023-05-20T19:16:27.966Z,18.46
2023-05-20T19:21:32.702Z,18.25
2023-05-20T19:26:35.580Z,18.09
2023-05-20T19:31:41.435Z,17.93
2023-05-20T19:36:45.464Z,17.76
2023-05-20T19:41:48.786Z,17.59
2023-05-20T19:46:53.433Z,17.44
2023-05-20T19:51:56.277Z,17.28
2023-05-20T19:56:59.178Z,17.15
2023-05-20T20:02:03.070Z,17.03
2023-05-20T20:07:08.118Z,16.93
2023-05-20T20:12:10.932Z,16.83
2023-05-20T20:17:15.769Z,16.72
2023-05-20T20:22:18.645Z,16.59
2023-05-20T20:27:23.896Z,16.45
2023-05-20T20:32:27.451Z,16.31
2023-05-20T20:37:30.472Z,16.20
2023-05-20T20:42:33.492Z,16.11
2023-05-20T20:47:38.748Z,16.03
2023-05-20T20:52:42.924Z,15.92
2023-05-20T20:57:45.896Z,15.84
2023-05-20T21:02:48.817Z,15.75
2023-05-20T21:07:58.250Z,15.67
2023-05-20T21:13:01.409Z,15.62
2023-05-20T21:18:04.231Z,15.58
2023-05-20T21:23:07.303Z,15.53
2023-05-20T21:28:10.364Z,15.50
2023-05-20T21:33:13.363Z,15.47
2023-05-20T21:38:16.252Z,15.43
2023-05-20T21:43:19.106Z,15.40
2023-05-20T21:48:22.051Z,15.36
2023-05-20T21:53:24.899Z,15.31
2023-05-20T21:58:27.878Z,15.25
2023-05-20T22:03:32.956Z,15.19
2023-05-20T22:08:35.892Z,15.11
2023-05-20T22:13:43.302Z,15.03
2023-05-20T22:18:49.679Z,14.95
2023-05-20T22:23:52.708Z,14.89
2023-05-20T22:28:55.457Z,14.83
2023-05-20T22:33:58.458Z,14.78
2023-05-20T22:39:02.428Z,14.72
2023-05-20T22:44:05.502Z,14.67
2023-05-20T22:49:10.329Z,14.64
2023-05-20T22:54:13.140Z,14.60
2023-05-20T22:59:15.908Z,14.53
2023-05-20T23:04:18.953Z,14.48
2023-05-20T23:09:21.862Z,14.41
2023-05-20T23:14:24.712Z,14.34
2023-05-20T23:19:27.552Z,14.26
2023-05-20T23:24:30.908Z,14.20
2023-05-20T23:29:33.862Z,14.11
2023-05-20T23:34:36.654Z,14.03
2023-05-20T23:39:39.421Z,13.96
2023-05-20T23:44:42.245Z,13.87
2023-05-20T23:49:47.161Z,13.78
2023-05-20T23:54:52.338Z,13.70
2023-05-20T23:59:55.113Z,13.62
